createdAt,value
2019-06-20T02:40:12.613Z,18.00
2019-06-20T02:45:22.303Z,19.95
2019-06-20T02:48:56.439Z,18.95
2019-06-20T02:51:29.289Z,19.60
2019-06-20T02:54:01.713Z,23.12
2019-06-20T02:56:34.399Z,22.65
2019-06-20T02:59:07.016Z,27.73
2019-06-20T03:01:41.510Z,27.02
2019-06-20T03:04:15.840Z,31.70
2019-06-20T03:06:48.508Z,20.08
2019-06-20T03:09:21.057Z,16.32
2019-06-20T03:11:55.263Z,23.85
2019-06-20T03:14:27.686Z,23.52
2019-06-20T03:17:00.277Z,36.88
2019-06-20T03:19:32.647Z,25.03
2019-06-20T03:22:05.295Z,39.87
2019-06-20T03:24:37.635Z,27.73
2019-06-20T03:27:10.308Z,44.70
2019-06-20T03:32:34.575Z,31.37
2019-06-20T03:35:08.043Z,41.48
2019-06-20T03:37:40.565Z,26.35
2019-06-20T03:40:13.655Z,13.10
2019-06-20T03:42:47.516Z,16.10
2019-06-20T03:45:20.723Z,10.75
2019-06-20T03:47:53.389Z,25.82
2019-06-20T03:50:27.503Z,20.32
2019-06-20T03:53:05.679Z,20.65
2019-06-20T03:55:38.297Z,24.03
2019-06-20T03:58:10.871Z,28.90
2019-06-20T04:00:43.346Z,44.83
2019-06-20T04:03:16.044Z,22.95
2019-06-20T04:05:48.573Z,19.67
2019-06-20T04:08:21.228Z,13.60
2019-06-20T04:10:53.651Z,17.82
2019-06-20T04:13:26.300Z,15.68
2019-06-20T04:15:58.711Z,23.23
2019-06-20T04:18:31.305Z,26.90
2019-06-20T04:21:03.770Z,55.08
2019-06-20T04:23:36.292Z,17.00
2019-06-20T04:26:08.718Z,40.17
2019-06-20T04:28:41.290Z,18.50
2019-06-20T04:31:13.592Z,23.95
2019-06-20T04:33:46.289Z,16.05
2019-06-20T04:36:18.834Z,17.50
2019-06-20T04:38:51.288Z,39.25
2019-06-20T04:41:24.067Z,24.63
2019-06-20T04:43:56.498Z,15.90
2019-06-20T04:46:42.489Z,22.74
2019-06-20T04:51:46.658Z,15.70
2019-06-20T04:54:19.306Z,15.80
2019-06-20T04:56:53.422Z,24.10
2019-06-20T04:59:25.754Z,17.20
2019-06-20T05:01:58.327Z,16.18
2019-06-20T05:04:30.714Z,14.23
2019-06-20T05:07:20.090Z,17.83
2019-06-20T05:09:54.284Z,14.47
2019-06-20T05:12:26.779Z,8.43
2019-06-20T05:14:59.292Z,14.18
2019-06-20T05:17:32.678Z,8.75
2019-06-20T05:20:06.420Z,15.85
2019-06-20T05:22:39.286Z,16.50
2019-06-20T05:25:12.285Z,23.12
2019-06-20T05:27:44.730Z,21.82
2019-06-20T05:30:17.517Z,10.88
2019-06-20T05:32:52.862Z,18.77
2019-06-20T05:35:25.524Z,20.72
2019-06-20T05:37:58.313Z,17.32
2019-06-20T05:40:30.897Z,23.53
2019-06-20T05:43:03.577Z,30.25
2019-06-20T05:48:37.388Z,18.80
2019-06-20T05:51:10.274Z,12.45
2019-06-20T05:53:42.826Z,11.95
2019-06-20T05:56:15.480Z,16.73
2019-06-20T05:58:48.326Z,17.67
2019-06-20T06:01:20.811Z,12.23
2019-06-20T06:03:54.783Z,18.12
2019-06-20T06:06:27.327Z,14.25
2019-06-20T06:09:02.992Z,8.00
2019-06-20T06:11:37.259Z,8.23
2019-06-20T06:14:09.569Z,9.45
2019-06-20T06:16:46.490Z,6.53
2019-06-20T06:19:20.387Z,8.13
2019-06-20T06:21:52.827Z,5.95
2019-06-20T06:24:27.048Z,8.25
2019-06-20T06:27:00.039Z,5.98
2019-06-20T06:29:32.686Z,6.37
2019-06-20T06:32:05.481Z,8.63
2019-06-20T06:34:39.004Z,8.57
2019-06-20T06:37:11.540Z,7.23
2019-06-20T06:39:44.467Z,5.15
2019-06-20T06:42:18.353Z,10.78
2019-06-20T06:44:50.915Z,6.62
2019-06-20T06:49:56.731Z,5.37
2019-06-20T06:52:29.432Z,7.75
2019-06-20T07:00:10.439Z,8.30
2019-06-20T07:02:42.984Z,7.30
2019-06-20T07:05:16.300Z,8.55
2019-06-20T07:07:48.641Z,4.75
2019-06-20T07:12:02.329Z,4.85
2019-06-20T07:14:35.035Z,5.25
2019-06-20T07:17:07.612Z,5.20
2019-06-20T07:19:40.301Z,7.33
2019-06-20T07:22:12.875Z,8.30
2019-06-20T07:24:45.634Z,4.62
2019-06-20T07:27:19.302Z,5.72
2019-06-20T07:29:51.768Z,6.50
2019-06-20T07:32:25.490Z,3.18
2019-06-20T07:34:57.846Z,4.58
2019-06-20T07:37:30.340Z,4.70
2019-06-20T07:40:02.711Z,4.97
2019-06-20T07:42:35.525Z,3.00
2019-06-20T07:45:13.365Z,2.85
2019-06-20T07:47:45.817Z,4.07
2019-06-20T07:50:19.715Z,4.75
2019-06-20T07:53:01.993Z,2.37
2019-06-20T07:55:26.810Z,3.45
2019-06-20T08:00:30.653Z,3.04
2019-06-20T08:03:02.896Z,2.40
2019-06-20T08:05:37.350Z,4.28
2019-06-20T08:10:42.415Z,5.70
2019-06-20T08:13:15.347Z,3.40
2019-06-20T08:15:49.307Z,3.42
2019-06-20T08:18:22.058Z,2.55
2019-06-20T08:20:56.254Z,3.24
2019-06-20T08:23:28.865Z,2.50
2019-06-20T08:26:02.545Z,5.50
2019-06-20T08:28:35.345Z,1.93
2019-06-20T08:31:09.022Z,4.03
2019-06-20T08:33:41.534Z,2.27
2019-06-20T08:36:15.704Z,3.62
2019-06-20T08:38:48.637Z,3.40
2019-06-20T08:41:22.748Z,4.95
2019-06-20T08:43:57.062Z,3.45
2019-06-20T08:46:31.291Z,3.36
2019-06-20T08:49:05.685Z,2.90
2019-06-20T08:51:40.584Z,4.15
2019-06-20T08:54:16.799Z,11.88
2019-06-20T08:56:49.311Z,27.93
2019-06-20T08:59:24.747Z,5.22
2019-06-20T09:01:58.711Z,15.10
2019-06-20T09:04:30.682Z,2.78
2019-06-20T09:09:37.044Z,2.08
2019-06-20T09:12:09.640Z,2.90
2019-06-20T09:14:42.286Z,2.67
2019-06-20T09:17:14.845Z,4.53
2019-06-20T09:19:47.479Z,2.95
2019-06-20T09:22:20.111Z,1.47
2019-06-20T09:24:53.653Z,8.30
2019-06-20T09:27:27.433Z,3.00
2019-06-20T09:30:00.521Z,5.47
2019-06-20T09:32:33.543Z,3.70
2019-06-20T09:35:10.832Z,4.65
2019-06-20T09:37:43.556Z,2.77
2019-06-20T09:40:16.889Z,3.30
2019-06-20T09:42:51.240Z,3.80
2019-06-20T09:45:26.672Z,4.83
2019-06-20T09:47:59.323Z,3.22
2019-06-20T09:50:32.286Z,4.08
2019-06-20T09:53:04.842Z,2.95
2019-06-20T09:55:37.541Z,1.65
2019-06-20T09:58:10.311Z,3.27
2019-06-20T10:00:43.075Z,2.25
2019-06-20T10:03:16.050Z,2.45
2019-06-20T10:05:49.285Z,2.50
2019-06-20T10:08:24.315Z,1.45
2019-06-20T10:10:56.850Z,3.27
2019-06-20T10:13:32.556Z,4.78
2019-06-20T10:16:03.845Z,1.85
2019-06-20T10:18:36.909Z,1.85
2019-06-20T10:21:09.796Z,2.08
2019-06-20T10:23:43.286Z,3.40
2019-06-20T10:26:17.468Z,2.58
2019-06-20T10:28:51.427Z,2.00
2019-06-20T10:33:56.963Z,1.65
2019-06-20T10:39:03.429Z,1.27
2019-06-20T10:41:37.641Z,4.80
2019-06-20T10:44:10.471Z,5.60
2019-06-20T10:46:45.788Z,4.70
2019-06-20T10:49:19.436Z,4.72
2019-06-20T10:51:52.280Z,3.35
2019-06-20T10:54:26.907Z,5.33
2019-06-20T10:56:59.473Z,4.22
2019-06-20T10:59:41.654Z,2.78
2019-06-20T11:02:19.745Z,3.33
2019-06-20T11:04:52.297Z,2.93
2019-06-20T11:07:27.655Z,2.27
2019-06-20T11:10:00.415Z,1.80
2019-06-20T11:12:42.890Z,2.80
2019-06-20T11:15:11.139Z,2.12
2019-06-20T11:17:44.145Z,2.47
2019-06-20T11:20:17.835Z,1.47
2019-06-20T11:22:53.315Z,4.22
2019-06-20T11:25:27.773Z,1.47
2019-06-20T11:28:00.390Z,3.25
2019-06-20T11:30:48.026Z,1.80
2019-06-20T11:33:10.304Z,2.15
2019-06-20T11:35:43.446Z,1.42
2019-06-20T11:38:16.304Z,2.30
2019-06-20T11:40:49.459Z,3.55
2019-06-20T11:43:22.290Z,1.57
2019-06-20T11:45:57.750Z,2.02
2019-06-20T11:48:30.449Z,3.42
2019-06-20T11:51:03.294Z,2.22
2019-06-20T11:53:36.557Z,1.57
2019-06-20T11:56:09.456Z,1.63
2019-06-20T11:58:42.294Z,1.22
2019-06-20T12:01:14.842Z,1.50
2019-06-20T12:03:47.305Z,1.50
2019-06-20T12:06:20.243Z,1.03
2019-06-20T12:08:53.833Z,2.10
2019-06-20T12:11:27.945Z,3.08
2019-06-20T12:14:00.403Z,3.75
2019-06-20T12:16:32.341Z,1.97
2019-06-20T12:19:04.857Z,2.30
2019-06-20T12:21:37.997Z,2.50
2019-06-20T12:24:13.042Z,1.57
2019-06-20T12:26:46.874Z,3.58
2019-06-20T12:29:19.701Z,4.53
2019-06-20T12:31:52.857Z,1.62
2019-06-20T12:34:25.554Z,1.30
2019-06-20T12:36:58.295Z,2.60
2019-06-20T12:42:02.429Z,1.48
2019-06-20T12:47:07.517Z,2.12
2019-06-20T12:49:41.693Z,5.03
2019-06-20T12:52:14.301Z,1.52
2019-06-20T13:04:54.598Z,3.10
2019-06-20T13:07:28.363Z,1.30
2019-06-20T13:10:01.024Z,1.27
2019-06-20T13:12:33.416Z,2.58
2019-06-20T13:15:07.297Z,6.87
2019-06-20T13:17:41.339Z,2.17
2019-06-20T13:20:14.492Z,3.00
2019-06-20T13:22:46.961Z,3.70
2019-06-20T13:25:20.391Z,1.65
2019-06-20T13:27:52.808Z,1.60
2019-06-20T13:30:25.600Z,2.10
2019-06-20T13:32:58.340Z,1.62
2019-06-20T13:35:31.564Z,1.57
2019-06-20T13:38:05.939Z,3.98
2019-06-20T13:40:39.608Z,1.87
2019-06-20T13:43:13.108Z,2.37
2019-06-20T13:45:47.169Z,4.53
2019-06-20T13:48:19.864Z,2.10
2019-06-20T13:50:52.374Z,3.25
2019-06-20T13:53:25.030Z,5.03
2019-06-20T13:57:00.327Z,1.40
2019-06-20T13:59:57.005Z,1.62
2019-06-20T14:02:33.347Z,1.14
2019-06-20T14:05:09.469Z,0.90
2019-06-20T14:07:48.490Z,2.00
2019-06-20T14:10:23.964Z,0.90
2019-06-20T14:12:56.530Z,2.58
2019-06-20T14:15:29.315Z,3.67
2019-06-20T14:18:02.900Z,1.58
2019-06-20T14:20:36.715Z,2.35
2019-06-20T14:23:09.520Z,1.40
2019-06-20T14:25:43.713Z,1.05
2019-06-20T14:28:16.459Z,1.70
2019-06-20T14:30:50.694Z,2.05
2019-06-20T14:33:23.400Z,3.55
2019-06-20T14:35:59.306Z,1.30
2019-06-20T14:38:32.431Z,1.30
2019-06-20T14:41:05.330Z,2.00
2019-06-20T14:43:38.348Z,1.47
2019-06-20T14:46:11.395Z,1.63
2019-06-20T14:48:45.375Z,2.05
2019-06-20T14:51:19.455Z,2.00
2019-06-20T14:53:52.713Z,2.93
2019-06-20T14:58:57.358Z,3.52
2019-06-20T15:01:32.864Z,1.90
2019-06-20T15:04:06.341Z,1.37
2019-06-20T15:06:38.598Z,3.30
2019-06-20T15:11:47.844Z,1.60
2019-06-20T15:14:20.963Z,0.88
2019-06-20T15:16:53.733Z,3.20
2019-06-20T15:19:26.622Z,1.73
2019-06-20T15:21:59.981Z,2.88
2019-06-20T15:24:35.840Z,1.32
2019-06-20T15:27:11.557Z,3.60
2019-06-20T15:29:46.995Z,1.10
2019-06-20T15:32:18.976Z,0.75
2019-06-20T15:34:51.630Z,0.85
2019-06-20T15:37:25.658Z,1.02
2019-06-20T15:40:02.508Z,1.85
2019-06-20T15:42:36.925Z,1.65
2019-06-20T15:45:13.413Z,1.37
2019-06-20T15:47:46.411Z,1.70
2019-06-20T15:50:19.643Z,17.30
2019-06-20T15:52:52.348Z,3.00
2019-06-20T15:55:26.119Z,1.42
2019-06-20T15:57:59.677Z,52.70
2019-06-20T16:00:32.634Z,6.15
2019-06-20T16:03:09.977Z,1.67
2019-06-20T16:07:16.359Z,3.72
2019-06-20T16:09:48.822Z,3.50
2019-06-20T16:12:21.384Z,6.00
2019-06-20T16:14:54.080Z,2.40
2019-06-20T16:17:26.557Z,2.50
2019-06-20T16:20:00.291Z,1.35
2019-06-20T16:22:32.602Z,2.65
2019-06-20T16:25:08.655Z,2.42
2019-06-20T16:27:41.310Z,1.12
2019-06-20T16:30:17.297Z,3.10
2019-06-20T16:32:49.701Z,1.37
2019-06-20T16:35:22.631Z,1.57
2019-06-20T16:37:55.318Z,3.72
2019-06-20T16:40:45.349Z,2.27
2019-06-20T16:45:51.071Z,3.73
2019-06-20T16:48:23.900Z,1.35
2019-06-20T16:50:56.538Z,4.10
2019-06-20T16:53:29.993Z,4.08
2019-06-20T16:56:02.590Z,2.77
2019-06-20T16:58:35.226Z,2.80
2019-06-20T17:03:42.246Z,1.50
2019-06-20T17:08:46.830Z,1.20
2019-06-20T17:11:22.569Z,2.25
2019-06-20T17:16:28.294Z,5.70
2019-06-20T17:19:01.067Z,7.20
2019-06-20T17:21:33.910Z,3.72
2019-06-20T17:24:07.427Z,1.35
2019-06-20T17:26:40.510Z,4.55
2019-06-20T17:29:13.304Z,1.60
2019-06-20T17:31:47.591Z,1.47
2019-06-20T17:34:22.310Z,1.70
2019-06-20T17:36:55.022Z,4.15
2019-06-20T17:39:27.599Z,3.75
2019-06-20T17:42:00.562Z,3.35
2019-06-20T17:44:34.501Z,2.45
2019-06-20T17:47:07.329Z,2.47
2019-06-20T17:49:39.661Z,2.33
2019-06-20T17:52:12.304Z,3.17
2019-06-20T17:54:44.786Z,2.37
2019-06-20T17:57:17.530Z,1.70
2019-06-20T17:59:50.403Z,2.33
2019-06-20T18:02:23.288Z,2.30
2019-06-20T18:04:55.883Z,2.05
2019-06-20T18:07:28.345Z,1.57
2019-06-20T18:10:00.847Z,3.92
2019-06-20T18:12:34.858Z,3.62
2019-06-20T18:15:13.325Z,4.97
2019-06-20T18:20:46.417Z,1.45
2019-06-20T18:23:18.884Z,2.70
2019-06-20T18:25:51.353Z,2.80
2019-06-20T18:28:23.756Z,1.50
2019-06-20T18:30:59.824Z,1.62
2019-06-20T18:33:31.477Z,2.17
2019-06-20T18:36:04.308Z,1.40
2019-06-20T18:38:37.511Z,1.87
2019-06-20T18:41:12.487Z,5.83
2019-06-20T18:43:45.054Z,1.95
2019-06-20T18:46:18.360Z,1.40
2019-06-20T18:48:51.022Z,3.17
2019-06-20T18:51:23.810Z,3.25
2019-06-20T18:53:56.402Z,3.12
2019-06-20T18:56:29.135Z,2.35
2019-06-20T19:01:49.303Z,2.50
2019-06-20T19:04:25.294Z,2.58
2019-06-20T19:06:58.007Z,1.80
2019-06-20T19:12:02.702Z,2.67
2019-06-20T19:14:35.367Z,2.05
2019-06-20T19:22:11.501Z,2.45
2019-06-20T19:24:45.727Z,2.42
2019-06-20T19:27:18.715Z,2.37
2019-06-20T19:29:51.379Z,3.00
2019-06-20T19:32:24.341Z,2.25
2019-06-20T19:35:01.875Z,5.15
2019-06-20T19:37:32.407Z,2.95
2019-06-20T19:40:06.611Z,2.40
2019-06-20T19:42:39.707Z,2.80
2019-06-20T19:45:17.687Z,3.25
2019-06-20T19:47:50.390Z,4.10
2019-06-20T19:50:23.505Z,2.67
2019-06-20T19:52:56.354Z,2.15
2019-06-20T19:55:31.320Z,4.62
2019-06-20T19:58:04.485Z,4.53
2019-06-20T20:00:37.837Z,3.08
2019-06-20T20:03:11.443Z,2.27
2019-06-20T20:05:45.761Z,2.25
2019-06-20T20:08:19.503Z,2.17
2019-06-20T20:10:56.383Z,5.20
2019-06-20T20:13:33.462Z,2.98
2019-06-20T20:16:06.502Z,4.84
2019-06-20T20:18:41.005Z,3.40
2019-06-20T20:21:13.671Z,5.20
2019-06-20T20:23:47.322Z,9.15
2019-06-20T20:26:20.311Z,3.65
2019-06-20T20:28:54.474Z,3.37
2019-06-20T20:31:27.303Z,3.33
2019-06-20T20:34:01.730Z,8.43
2019-06-20T20:36:34.299Z,4.58
2019-06-20T20:39:09.069Z,2.26
2019-06-20T20:41:41.610Z,3.75
2019-06-20T20:44:14.414Z,6.30
2019-06-20T20:46:47.352Z,3.27
2019-06-20T20:49:19.832Z,9.17
2019-06-20T20:51:52.469Z,3.75
2019-06-20T20:54:24.852Z,3.87
2019-06-20T20:56:57.409Z,3.20
2019-06-20T20:59:30.295Z,2.75
2019-06-20T21:02:02.655Z,2.22
2019-06-20T21:04:35.343Z,2.87
2019-06-20T21:07:07.776Z,5.30
2019-06-20T21:09:40.317Z,5.85
2019-06-20T21:12:13.322Z,3.60
2019-06-20T21:14:45.591Z,4.35
2019-06-20T21:17:18.101Z,2.80
2019-06-20T21:19:50.460Z,4.65
2019-06-20T21:22:23.762Z,2.45
2019-06-20T21:24:56.302Z,8.70
2019-06-20T21:27:28.763Z,15.43
2019-06-20T21:30:02.309Z,13.70
2019-06-20T21:32:34.840Z,5.00
2019-06-20T21:35:10.712Z,6.97
2019-06-20T21:37:43.397Z,5.10
2019-06-20T21:40:16.043Z,3.73
2019-06-20T21:42:48.395Z,6.80
2019-06-20T21:45:21.554Z,3.37
2019-06-20T21:47:54.310Z,4.87
2019-06-20T21:50:26.785Z,4.97
2019-06-20T21:52:59.320Z,3.50
2019-06-20T21:55:32.396Z,8.28
2019-06-20T21:58:04.798Z,4.10
2019-06-20T22:00:44.402Z,4.10
2019-06-20T22:03:18.621Z,4.45
2019-06-20T22:05:51.672Z,2.75
2019-06-20T22:08:24.294Z,2.55
2019-06-20T22:11:16.607Z,3.02
2019-06-20T22:13:49.454Z,5.65
2019-06-20T22:16:21.825Z,2.98
2019-06-20T22:18:54.389Z,5.55
2019-06-20T22:21:27.049Z,4.45
2019-06-20T22:23:59.823Z,6.25
2019-06-20T22:26:32.762Z,7.15
2019-06-20T22:29:05.552Z,4.12
2019-06-20T22:31:38.505Z,3.60
2019-06-20T22:34:11.525Z,8.40
2019-06-20T22:36:45.042Z,2.43
2019-06-20T22:39:17.382Z,4.53
2019-06-20T22:41:49.877Z,3.95
2019-06-20T22:44:22.824Z,3.87
2019-06-20T22:46:55.351Z,5.75
2019-06-20T22:49:27.945Z,3.10
2019-06-20T22:52:00.330Z,5.50
2019-06-20T22:54:32.785Z,4.53
2019-06-20T22:57:05.382Z,3.55
2019-06-20T22:59:37.837Z,5.13
2019-06-20T23:02:10.492Z,6.10
2019-06-20T23:04:43.310Z,5.30
2019-06-20T23:07:16.479Z,3.47
2019-06-20T23:09:50.741Z,3.53
2019-06-20T23:14:54.621Z,3.55
2019-06-20T23:17:27.298Z,4.33
2019-06-20T23:22:32.903Z,3.36
2019-06-20T23:25:08.289Z,6.15
2019-06-20T23:27:40.748Z,3.92
2019-06-20T23:30:15.421Z,6.33
2019-06-20T23:32:47.875Z,5.00
2019-06-20T23:35:20.342Z,4.08
2019-06-20T23:37:52.668Z,5.10
2019-06-20T23:40:25.303Z,2.98
2019-06-20T23:42:57.682Z,4.75
2019-06-20T23:45:30.318Z,4.03
2019-06-20T23:48:03.464Z,7.38
2019-06-20T23:50:35.880Z,6.42
2019-06-20T23:53:16.394Z,4.15
2019-06-20T23:55:48.886Z,3.87
2019-06-20T23:58:21.290Z,5.50
